Neihart, Montana
Current Conditions -  °F | °C
As of 8:56 AM on Thursday 18 Dec 2014 (Local Time) from KGFA Reporting Station
Broken Clouds Broken Clouds  
Wind Chill: 19°   Ceiling: 15000
Heat Index: 32°   Visibility: 10mi
Dew Point: 26°   Wind: 21mph
Humidity: 79%   Direction: 210°SSW
Pressure: 29.9"   Gusts: NA
Location:  46.93°N, 110.74°W
Report Text: KGFA 181556Z AUTO 21018KT 10SM SCT120 BKN150 00/M03 A2990 RMK AO2 SLP166 P0010 T10021035
Loading
Personal Weather Stations






























Interactive Weather Map New forecast layout! Learn more

10-Day Weather Forecast

Advertisements
Track Severe Weather on mobile